createdAt,value
2022-11-14T00:04:21.726Z,95818.97
2022-11-14T00:07:10.524Z,95809.96
2022-11-14T00:12:40.275Z,95797.80
2022-11-14T00:18:16.691Z,95799.38
2022-11-14T00:23:53.978Z,95796.85
2022-11-14T00:29:21.741Z,95801.26
2022-11-14T00:34:52.192Z,95793.98
2022-11-14T00:40:30.796Z,95784.41
2022-11-14T00:46:05.442Z,95782.39
2022-11-14T00:51:41.857Z,95781.97
2022-11-14T00:54:30.465Z,95787.86
2022-11-14T01:00:18.261Z,95786.51
2022-11-14T01:05:48.889Z,95786.37
2022-11-14T01:11:23.244Z,95777.56
2022-11-14T01:14:11.809Z,95768.13
2022-11-14T01:19:47.000Z,95764.50
2022-11-14T01:25:19.774Z,95761.88
2022-11-14T01:30:49.598Z,95755.48
2022-11-14T01:33:38.029Z,95759.84
2022-11-14T01:39:07.622Z,95757.25
2022-11-14T01:44:47.701Z,95748.84
2022-11-14T01:47:36.260Z,95740.77
2022-11-14T01:53:12.493Z,95724.22
2022-11-14T01:58:52.810Z,95719.44
2022-11-14T02:04:26.767Z,95710.85
2022-11-14T02:07:15.875Z,95698.50
2022-11-14T02:12:46.482Z,95698.25
2022-11-14T02:18:16.384Z,95696.66
2022-11-14T02:21:05.470Z,95701.56
2022-11-14T02:26:36.992Z,95703.05
2022-11-14T02:32:16.724Z,95706.53
2022-11-14T02:35:06.739Z,95713.95
2022-11-14T02:37:54.922Z,95708.14
2022-11-14T02:43:29.434Z,95699.51
2022-11-14T02:49:04.787Z,95696.70
2022-11-14T02:51:53.263Z,95698.05
2022-11-14T02:57:29.440Z,95688.63
2022-11-14T03:00:21.166Z,95695.95
2022-11-14T03:05:53.619Z,95690.81
2022-11-14T03:08:41.311Z,95699.07
2022-11-14T03:14:10.777Z,95689.08
2022-11-14T03:16:59.295Z,95689.03
2022-11-14T03:22:35.486Z,95694.47
2022-11-14T03:28:08.451Z,95697.86
2022-11-14T03:33:44.807Z,95699.58
2022-11-14T03:39:15.635Z,95700.16
2022-11-14T03:42:04.999Z,95698.39
2022-11-14T03:44:53.357Z,95703.42
2022-11-14T03:50:22.841Z,95695.67
2022-11-14T03:56:04.483Z,95701.94
2022-11-14T04:01:33.617Z,95703.66
2022-11-14T04:07:02.291Z,95701.66
2022-11-14T04:12:33.237Z,95701.54
2022-11-14T04:18:06.123Z,95706.59
2022-11-14T04:20:54.781Z,95707.86
2022-11-14T04:26:24.993Z,95701.41
2022-11-14T04:29:18.560Z,95708.30
2022-11-14T04:32:08.345Z,95703.89
2022-11-14T04:34:57.225Z,95709.04
2022-11-14T04:40:37.532Z,95706.61
2022-11-14T04:43:25.768Z,95701.86
2022-11-14T04:46:13.714Z,95698.27
2022-11-14T04:51:48.125Z,95694.23
2022-11-14T04:54:37.247Z,95699.30
2022-11-14T04:57:28.146Z,95699.82
2022-11-14T05:00:17.792Z,95692.19
2022-11-14T05:05:57.218Z,95703.56
2022-11-14T05:11:28.074Z,95684.27
2022-11-14T05:17:04.992Z,95668.23
2022-11-14T05:22:39.524Z,95675.76
2022-11-14T05:28:08.447Z,95667.02
2022-11-14T05:33:42.794Z,95673.39
2022-11-14T05:36:31.852Z,95676.94
2022-11-14T05:39:19.986Z,95676.81
2022-11-14T05:44:56.773Z,95657.73
2022-11-14T05:50:27.232Z,95664.48
2022-11-14T05:55:56.827Z,95677.81
2022-11-14T06:01:23.775Z,95674.98
2022-11-14T06:06:56.989Z,95671.64
2022-11-14T06:12:35.476Z,95684.63
2022-11-14T06:18:08.421Z,95679.20
2022-11-14T06:23:45.005Z,95685.49
2022-11-14T06:32:02.260Z,95693.69
2022-11-14T06:34:50.686Z,95689.64
2022-11-14T06:40:27.306Z,95692.90
2022-11-14T06:45:57.569Z,95706.33
2022-11-14T06:51:28.704Z,95718.97
2022-11-14T06:57:05.789Z,95716.09
2022-11-14T06:59:55.497Z,95713.86
2022-11-14T07:02:47.047Z,95718.56
2022-11-14T07:08:23.742Z,95712.15
2022-11-14T07:14:03.844Z,95724.70
2022-11-14T07:19:40.023Z,95726.05
2022-11-14T07:22:28.254Z,95729.40
2022-11-14T07:27:57.309Z,95727.88
2022-11-14T07:30:46.213Z,95732.10
2022-11-14T07:36:17.084Z,95737.01
2022-11-14T07:41:54.230Z,95745.55
2022-11-14T07:47:31.833Z,95750.48
2022-11-14T07:53:00.995Z,95740.09
2022-11-14T07:55:49.254Z,95743.78
2022-11-14T08:01:25.388Z,95740.15
2022-11-14T08:06:53.562Z,95744.89
2022-11-14T08:09:41.781Z,95748.02
2022-11-14T08:12:29.963Z,95741.44
2022-11-14T08:18:07.951Z,95741.84
2022-11-14T08:23:44.837Z,95732.05
2022-11-14T08:29:22.473Z,95733.80
2022-11-14T08:34:51.060Z,95749.30
2022-11-14T08:40:26.788Z,95749.69
2022-11-14T08:46:01.859Z,95747.37
2022-11-14T08:51:37.130Z,95741.30
2022-11-14T08:57:14.351Z,95760.14
2022-11-14T09:02:51.472Z,95748.05
2022-11-14T09:08:27.529Z,95728.33
2022-11-14T09:14:02.573Z,95717.14
2022-11-14T09:22:17.416Z,95721.52
2022-11-14T09:25:06.414Z,95727.56
2022-11-14T09:30:37.877Z,95729.39
2022-11-14T09:33:27.748Z,95724.38
2022-11-14T09:39:04.370Z,95723.50
2022-11-14T09:44:52.834Z,95728.52
2022-11-14T09:53:18.055Z,95739.09
2022-11-14T09:56:09.208Z,95739.64
2022-11-14T10:01:45.365Z,95751.18
2022-11-14T10:07:27.855Z,95752.83
2022-11-14T10:13:09.266Z,95748.38
2022-11-14T10:18:54.562Z,95752.31
2022-11-14T10:25:04.519Z,95769.38
2022-11-14T10:30:47.100Z,95766.77
2022-11-14T10:33:41.981Z,95772.31
2022-11-14T10:36:50.430Z,95782.94
2022-11-14T10:42:27.929Z,95752.95
2022-11-14T10:48:13.256Z,95749.26
2022-11-14T10:56:36.114Z,95761.47
2022-11-14T11:02:04.241Z,95762.22
2022-11-14T11:13:41.728Z,95763.67
2022-11-14T11:19:21.376Z,95763.30
2022-11-14T11:22:25.126Z,95758.78
2022-11-14T11:25:28.458Z,95762.42
2022-11-14T11:28:19.060Z,95760.94
2022-11-14T11:31:08.831Z,95767.40
2022-11-14T11:36:56.917Z,95767.16
2022-11-14T11:45:17.859Z,95766.06
2022-11-14T11:48:11.855Z,95759.95
2022-11-14T11:54:06.020Z,95757.42
2022-11-14T11:59:48.570Z,95760.39
2022-11-14T12:05:47.341Z,95757.89
2022-11-14T12:08:40.239Z,95761.53
2022-11-14T12:14:25.817Z,95754.96
2022-11-14T12:20:38.276Z,95754.71
2022-11-14T12:26:46.003Z,95757.66
2022-11-14T12:32:20.239Z,95745.63
2022-11-14T12:38:00.898Z,95767.84
2022-11-14T12:43:43.170Z,95750.36
2022-11-14T12:52:45.792Z,95758.23
2022-11-14T12:55:56.832Z,95752.69
2022-11-14T13:02:18.032Z,95764.50
2022-11-14T13:08:08.695Z,95761.55
2022-11-14T13:10:58.063Z,95760.33
2022-11-14T13:17:05.195Z,95766.03
2022-11-14T13:20:12.173Z,95765.91
2022-11-14T13:23:20.374Z,95764.23
2022-11-14T13:27:00.111Z,95765.94
2022-11-14T13:33:10.319Z,95764.09
2022-11-14T13:36:05.244Z,95773.16
2022-11-14T13:39:14.473Z,95766.81
2022-11-14T13:49:05.204Z,95772.22
2022-11-14T13:54:49.263Z,95770.13
2022-11-14T14:06:36.636Z,95780.38
2022-11-14T14:12:26.048Z,95773.16
2022-11-14T14:18:10.735Z,95765.92
2022-11-14T14:26:34.572Z,95763.22
2022-11-14T14:32:15.254Z,95756.32
2022-11-14T14:35:22.446Z,95762.98
2022-11-14T14:41:02.893Z,95761.28
2022-11-14T14:43:57.704Z,95761.95
2022-11-14T14:49:30.512Z,95772.73
2022-11-14T14:52:22.361Z,95772.41
2022-11-14T14:58:24.953Z,95771.49
2022-11-14T15:04:06.085Z,95789.84
2022-11-14T15:06:55.933Z,95790.27
2022-11-14T15:12:43.092Z,95794.58
2022-11-14T15:15:33.325Z,95802.70
2022-11-14T15:21:19.561Z,95767.59
2022-11-14T15:27:00.332Z,95751.08
2022-11-14T15:29:55.270Z,95748.92
2022-11-14T15:35:41.838Z,95732.51
2022-11-14T15:44:36.525Z,95711.89
2022-11-14T15:47:27.670Z,95706.90
2022-11-14T15:53:23.561Z,95712.09
2022-11-14T16:04:35.519Z,95714.23
2022-11-14T16:10:04.641Z,95713.66
2022-11-14T16:15:41.557Z,95717.76
2022-11-14T16:21:14.289Z,95714.12
2022-11-14T16:26:51.670Z,95712.99
2022-11-14T16:32:30.543Z,95717.27
2022-11-14T16:35:20.538Z,95722.77
2022-11-14T16:38:12.203Z,95721.33
2022-11-14T16:43:51.916Z,95717.03
2022-11-14T16:49:27.557Z,95722.34
2022-11-14T16:52:17.075Z,95718.34
2022-11-14T16:55:05.750Z,95715.63
2022-11-14T17:00:46.602Z,95725.83
2022-11-14T17:06:23.656Z,95720.83
2022-11-14T17:11:57.066Z,95725.36
2022-11-14T17:17:34.633Z,95728.38
2022-11-14T17:20:23.851Z,95723.65
2022-11-14T17:26:02.360Z,95717.09
2022-11-14T17:31:44.438Z,95715.59
2022-11-14T17:37:17.447Z,95714.47
2022-11-14T17:42:55.719Z,95713.80
2022-11-14T17:48:32.954Z,95716.75
2022-11-14T17:53:59.021Z,95727.36
2022-11-14T17:56:54.595Z,95731.44
2022-11-14T18:02:26.377Z,95733.41
2022-11-14T18:05:15.208Z,95736.29
2022-11-14T18:13:32.959Z,95726.00
2022-11-14T18:16:21.859Z,95726.06
2022-11-14T18:24:36.627Z,95720.83
2022-11-14T18:27:26.197Z,95722.66
2022-11-14T18:33:01.465Z,95721.97
2022-11-14T18:38:40.334Z,95720.27
2022-11-14T18:44:15.591Z,95724.06
2022-11-14T18:49:48.079Z,95727.83
2022-11-14T18:52:37.348Z,95721.38
2022-11-14T18:58:13.540Z,95723.98
2022-11-14T19:03:44.673Z,95721.25
2022-11-14T19:09:20.027Z,95724.27
2022-11-14T19:12:23.386Z,95722.72
2022-11-14T19:17:59.209Z,95707.01
2022-11-14T19:23:37.180Z,95714.27
2022-11-14T19:31:59.163Z,95716.50
2022-11-14T19:37:37.253Z,95714.91
2022-11-14T19:40:26.095Z,95717.19
2022-11-14T19:46:04.012Z,95713.75
2022-11-14T19:51:38.815Z,95714.67
2022-11-14T19:54:27.137Z,95722.77
2022-11-14T19:59:55.684Z,95717.41
2022-11-14T20:05:26.999Z,95724.28
2022-11-14T20:11:00.833Z,95723.45
2022-11-14T20:16:31.194Z,95727.72
2022-11-14T20:19:19.672Z,95732.27
2022-11-14T20:24:49.258Z,95728.23
2022-11-14T20:27:37.694Z,95729.34
2022-11-14T20:33:07.669Z,95723.61
2022-11-14T20:38:44.341Z,95729.10
2022-11-14T20:47:00.082Z,95727.49
2022-11-14T20:52:38.999Z,95723.41
2022-11-14T20:55:28.507Z,95726.48
2022-11-14T20:58:18.078Z,95725.94
2022-11-14T21:01:06.775Z,95728.02
2022-11-14T21:06:44.269Z,95716.09
2022-11-14T21:12:19.773Z,95712.45
2022-11-14T21:17:58.582Z,95711.03
2022-11-14T21:20:48.924Z,95720.02
2022-11-14T21:23:37.804Z,95724.38
2022-11-14T21:29:16.149Z,95717.33
2022-11-14T21:34:43.470Z,95712.45
2022-11-14T21:37:48.465Z,95710.08
2022-11-14T21:40:41.951Z,95708.48
2022-11-14T21:43:30.529Z,95710.86
2022-11-14T21:49:22.773Z,95699.67
2022-11-14T21:52:11.159Z,95697.69
2022-11-14T22:00:33.856Z,95680.04
2022-11-14T22:03:40.943Z,95676.30
2022-11-14T22:09:19.147Z,95676.38
2022-11-14T22:14:53.689Z,95676.83
2022-11-14T22:17:42.933Z,95683.72
2022-11-14T22:20:31.129Z,95673.32
2022-11-14T22:23:19.320Z,95675.77
2022-11-14T22:28:52.939Z,95676.50
2022-11-14T22:34:21.078Z,95687.87
2022-11-14T22:39:57.646Z,95683.50
2022-11-14T22:42:45.658Z,95678.18
2022-11-14T22:48:19.667Z,95681.52
2022-11-14T22:53:58.043Z,95670.72
2022-11-14T22:56:46.417Z,95663.63
2022-11-14T22:59:35.273Z,95672.05
2022-11-14T23:02:25.332Z,95675.70
2022-11-14T23:05:13.943Z,95668.55
2022-11-14T23:08:02.403Z,95669.08
2022-11-14T23:14:00.647Z,95681.52
2022-11-14T23:22:19.253Z,95675.34
2022-11-14T23:25:09.312Z,95677.80
2022-11-14T23:30:37.511Z,95672.78
2022-11-14T23:36:11.132Z,95680.45
2022-11-14T23:39:00.688Z,95676.32
2022-11-14T23:41:49.831Z,95682.43
2022-11-14T23:47:30.259Z,95665.87
2022-11-14T23:53:08.780Z,95668.17
2022-11-14T23:58:41.807Z,95663.16
